Updated15/10/2019 3:31pm 
 

Nearby Airport METAR Reports

 

KVSF - Springfield, Vermont, USA
Distance from station: WSW 8mi, 12km
Updated: 10/15/2019 2:54pm
Clear
Clear
 Wind from varies
Wind: varies 5 mph , 7 km/h
Temperature: 59°F , 15°C
Dew Point: 27°F , -3°C
Humidity: 29%
Barometer: 30.07 inHg , 1018.3 hPa
Clouds: Clear
Visibility: 10 miles , 16 km
2019/10/15 18:54 KVSF 151854Z AUTO VRB04KT 10SM CLR 15/M03 A3007 RMK AO2 SLP186 T01501033
KLEB - Lebanon, New Hampshire, USA
Distance from station: N 18mi, 29km
Updated: 10/15/2019 3:00pm
Clear
Clear
 Wind from NW
Wind: NW 8 mph , 13 km/h
Temperature: 61°F , 16°C
Dew Point: 28°F , -2°C
Humidity: 29%
Barometer: 30.06 inHg , 1017.9 hPa
Clouds: Clear
Visibility: 10 miles , 16 km
2019/10/15 19:00 KLEB 151900Z 32007KT 10SM CLR 16/M02 A3006 RMK AO2 T01611017
KRUT - Rutland State, Vermont, USA
Distance from station: WNW 31mi, 50km
Updated: 10/15/2019 2:56pm
Clear
Clear
 Wind from SW
Wind: SW 6 mph , 9 km/h
Temperature: 55°F , 13°C
Dew Point: 30°F , -1°C
Humidity: 38%
Barometer: 30.08 inHg , 1018.6 hPa
Clouds: Clear
Visibility: 10 miles , 16 km
2019/10/15 18:56 KRUT 151856Z AUTO 22005KT 10SM CLR 13/M01 A3008 RMK AO2 SLP183 T01331006 $
 
KEEN - Keene/Dillant, New Hampshire, USA
Distance from station: S 34mi, 55km
Updated: 10/15/2019 2:56pm
Clear
Clear
 Wind from WSW
Wind: WSW 7 mph , 11 km/h
Temperature: 59°F , 15°C
Dew Point: 28°F , -2°C
Humidity: 31%
Barometer: 30.08 inHg , 1018.6 hPa
Clouds: Clear
Visibility: 10 miles , 16 km
2019/10/15 18:56 KEEN 151856Z AUTO 24006KT 10SM CLR 15/M02 A3008 RMK AO2 SLP193 T01501017 $
K1P1 - Plymouth, New Hampshire, USA
Distance from station: NE 42mi, 67km
Updated: 10/15/2019 3:15pm
Clear
Clear
 Wind from WNW
Wind: WNW 3 mph , 6 km/h
Temperature: 59°F , 15°C
Dew Point: 30°F , -1°C
Humidity: 34%
Barometer: 30.06 inHg , 1017.9 hPa
Clouds: Clear
Visibility: 10 miles , 16 km
2019/10/15 19:15 K1P1 151915Z AUTO 29003KT 10SM CLR 15/M01 A3006 RMK AO2 T01451013
KAFN - Jaffrey, New Hampshire, USA
Distance from station: SSE 44mi, 70km
Updated: 10/15/2019 2:52pm
Clear
Clear
 Wind from varies
Wind: varies 6 mph , 9 km/h
Temperature: 57°F , 14°C
Dew Point: 28°F , -2°C
Humidity: 33%
Barometer: 30.09 inHg , 1019 hPa
Clouds: Clear
Visibility: 10 miles , 16 km
2019/10/15 18:52 KAFN 151852Z AUTO VRB05KT 10SM CLR 14/M02 A3009 RMK AO2 SLP196 T01391022
 
KCON - Concord, New Hampshire, USA
Distance from station: ESE 45mi, 73km
Updated: 10/15/2019 2:51pm
Clear
Clear
 Wind from varies
Wind: varies 5 mph , 7 km/h
Temperature: 61°F , 16°C
Dew Point: 27°F , -3°C
Humidity: 27%
Barometer: 30.08 inHg , 1018.6 hPa
Clouds: Clear
Visibility: 10 miles , 16 km
2019/10/15 18:51 KCON 151851Z AUTO VRB04KT 10SM CLR 16/M03 A3008 RMK AO2 SLP185 T01561028
KLCI - Laconia Muni, New Hampshire, USA
Distance from station: ENE 49mi, 80km
Updated: 10/15/2019 2:56pm
Clear
Clear
 Wind from WSW
Wind: WSW 8 mph , 13 km/h
Temperature: 57°F , 14°C
Dew Point: 30°F , -1°C
Humidity: 36%
Barometer: 30.07 inHg , 1018.3 hPa
Clouds: Clear
Visibility: 10 miles , 16 km
2019/10/15 18:56 KLCI 151856Z AUTO 25007KT 10SM CLR 14/M01 A3007 RMK AO2 SLP185 T01391011
KDDH - Bennington, Vermont, USA
Distance from station: SW 55mi, 89km
Updated: 10/15/2019 2:54pm
Clear
Clear
 Wind from varies
Wind: varies 3 mph , 6 km/h
Temperature: 55°F , 13°C
Dew Point: 36°F , 2°C
Humidity: 47%
Barometer: 30.10 inHg , 1019.3 hPa
Clouds: Clear
Visibility: 10 miles , 16 km
2019/10/15 18:54 KDDH 151854Z AUTO VRB03KT 10SM CLR 13/02 A3010 RMK AO2 SLP193 T01330017
 
K6B0 - Middlebury, Vermont, USA
Distance from station: NW 56mi, 90km
Updated: 10/15/2019 3:18pm
Clear
Clear
 Wind from S
Wind: S 3 mph , 6 km/h
Temperature: 55°F , 13°C
Dew Point: 32°F , 0°C
Humidity: 41%
Barometer: 30.06 inHg , 1017.9 hPa
Clouds: Clear
Visibility: 10 miles , 16 km
2019/10/15 19:18 K6B0 151918Z AUTO 19003KT 10SM CLR 13/00 A3006 RMK AO2 T01341004
KMHT - Manchester, New Hampshire, USA
Distance from station: ESE 56mi, 90km
Updated: 10/15/2019 2:53pm
Few Clouds
Few Clouds
 Wind from varies
Wind: varies 5 mph , 7 km/h
Temperature: 61°F , 16°C
Dew Point: 28°F , -2°C
Humidity: 29%
Barometer: 30.07 inHg , 1018.3 hPa
Clouds: Few Clouds
Visibility: 10 miles , 16 km
Cloud details: Few Clouds 25000 ft
2019/10/15 18:53 KMHT 151853Z VRB04KT 10SM FEW250 16/M02 A3007 RMK AO2 SLP194 T01561022
KORE - Orange, Massachusetts, USA
Distance from station: S 56mi, 90km
Updated: 10/15/2019 2:52pm
Clear
Clear
 Wind from WSW
Wind: WSW 6 mph , 9 km/h
Temperature: 61°F , 16°C
Dew Point: 30°F , -1°C
Humidity: 31%
Barometer: 30.10 inHg , 1019.3 hPa
Clouds: Clear
Visibility: 10 miles , 16 km
2019/10/15 18:52 KORE 151852Z AUTO 25005KT 10SM CLR 16/M01 A3010 RMK AO2 SLP194 T01561011
 
KMPV - Montpelier/Barre, Vermont, USA
Distance from station: N 58mi, 93km
Updated: 10/15/2019 2:51pm
Clear
Clear
 Wind from W
Wind: W 8 mph , 13 km/h
Temperature: 54°F , 12°C
Dew Point: 30°F , -1°C
Humidity: 41%
Barometer: 30.10 inHg , 1019.3 hPa
Clouds: Clear
Visibility: 10 miles , 16 km
2019/10/15 18:51 KMPV 151851Z AUTO 27007KT 10SM CLR 12/M01 A3010 RMK AO2 SLP199 T01221011
KASH - Nashua/Boire Fld, New Hampshire, USA
Distance from station: SE 59mi, 95km
Updated: 10/15/2019 2:56pm
Clear
Clear
 Wind from W
Wind: W 6 mph , 9 km/h
Temperature: 61°F , 16°C
Dew Point: 32°F , 0°C
Humidity: 34%
Barometer: 30.08 inHg , 1018.6 hPa
Clouds: Clear
Visibility: 10 miles , 16 km
2019/10/15 18:56 KASH 151856Z 28005KT 10SM CLR 16/00 A3008 RMK AO2 SLP192 T01610000
KAQW - North Adams, Massachusetts, USA
Distance from station: SW 62mi, 99km
Updated: 10/15/2019 2:52pm
Clear
Clear
 Wind from calm
Wind: Calm
Temperature: 57°F , 14°C
Dew Point: 32°F , 0°C
Humidity: 39%
Barometer: 30.09 inHg , 1019 hPa
Clouds: Clear
Visibility: 10 miles , 16 km
2019/10/15 18:52 KAQW 151852Z AUTO 00000KT 10SM CLR 14/00 A3009 RMK AO2 SLP193 T01440000
 
KGFL - Glens Falls, New York, USA
Distance from station: W 63mi, 101km
Updated: 10/15/2019 2:53pm
Clear
Clear
 Wind from SSE
Wind: SSE 10 mph , 17 km/h
Temperature: 57°F , 14°C
Dew Point: 34°F , 1°C
Humidity: 41%
Barometer: 30.08 inHg , 1018.6 hPa
Clouds: Clear
Visibility: 10 miles , 16 km
2019/10/15 18:53 KGFL 151853Z AUTO 16009KT 10SM CLR 14/01 A3008 RMK AO2 SLPNO T01440006
KFIT - Fitchburg, Massachusetts, USA
Distance from station: SSE 65mi, 105km
Updated: 10/15/2019 2:52pm
Clear
Clear
 Wind from varies
Wind: varies 6 mph , 9 km/h
Temperature: 63°F , 17°C
Dew Point: 30°F , -1°C
Humidity: 30%
Barometer: 30.10 inHg , 1019.3 hPa
Clouds: Clear
Visibility: 10 miles , 16 km
2019/10/15 18:52 KFIT 151852Z AUTO VRB05KT 10SM CLR 17/M01 A3010 RMK AO2 SLP193 T01671006
KDAW - Rochester, New Hampshire, USA
Distance from station: E 73mi, 118km
Updated: 10/15/2019 2:51pm
Clear
Clear
 Wind from varies
Wind: varies 3 mph , 6 km/h
Temperature: 61°F , 16°C
Dew Point: 30°F , -1°C
Humidity: 31%
Barometer: 30.07 inHg , 1018.3 hPa
Clouds: Clear
Visibility: 10 miles , 16 km
2019/10/15 18:51 KDAW 151851Z AUTO VRB03KT 10SM CLR 16/M01 A3007 RMK AO2 SLP179 T01611006
 
K1V4 - St. Johnsbury, Vermont, USA
Distance from station: NNE 74mi, 119km
Updated: 10/15/2019 2:54pm

 
Temperature: 55°F , 13°C
Dew Point: 27°F , -3°C
Humidity: 33%
Barometer: 30.04 inHg , 1017.3 hPa
2019/10/15 18:54 K1V4 151854Z AUTO 13/M03 A3004 RMK AO1 SLP175 T01331028
KLWM - Lawrence, Massachusetts, USA
Distance from station: SE 77mi, 124km
Updated: 10/15/2019 2:54pm
Clear
Clear
 Wind from NW
Wind: NW 9 mph , 15 km/h
Temperature: 61°F , 16°C
Dew Point: 36°F , 2°C
Humidity: 39%
Barometer: 30.10 inHg , 1019.3 hPa
Clouds: Clear
Visibility: 10 miles , 16 km
2019/10/15 18:54 KLWM 151854Z 31008KT 10SM CLR 16/02 A3010 RMK AO2 SLP192 T01560017



Flag Counter
free counter page views since 4/29/2009